Time;durP1;ratioP1;P1;durP2;ratioP2;P2;SDS_P1;SDS_P2;PMS_P1;PMS_P2;Temp;Humidity;BMP_temperature;BMP_pressure;BME280_temperature;BME280_humidity;BME280_pressure;Samples;Min_cycle;Max_cycle;Signal;HPM_P1;HPM_P2
2022/09/12 00:00:39;;;;;;;4.95;4.47;;;14.80;99.90;;;;;;5055129;28;20048;-66
2022/09/12 00:03:05;;;;;;;6.00;5.50;;;14.80;99.90;;;;;;5091920;28;20585;-67
2022/09/12 00:05:31;;;;;;;6.63;4.90;;;14.80;99.90;;;;;;5091517;28;20048;-67
2022/09/12 00:07:57;;;;;;;5.88;5.38;;;14.80;99.90;;;;;;5089312;28;20362;-66
2022/09/12 00:10:23;;;;;;;5.22;4.82;;;14.80;99.90;;;;;;5091593;28;20043;-66
2022/09/12 00:12:49;;;;;;;6.78;5.75;;;14.80;99.90;;;;;;5088074;28;20062;-67
2022/09/12 00:15:15;;;;;;;7.93;6.13;;;14.70;99.90;;;;;;5083147;28;20070;-68
2022/09/12 00:17:40;;;;;;;7.80;6.03;;;14.60;99.90;;;;;;5090352;28;20052;-66
2022/09/12 00:20:08;;;;;;;7.63;6.47;;;14.60;99.90;;;;;;5089831;28;20541;-67
2022/09/12 00:22:34;;;;;;;7.18;6.57;;;14.50;99.90;;;;;;5090667;28;20547;-68
2022/09/12 00:25:01;;;;;;;7.18;6.57;;;14.50;99.90;;;;;;5090233;28;20044;-67
2022/09/12 00:27:27;;;;;;;7.35;6.75;;;14.40;99.90;;;;;;5091120;28;20353;-67
2022/09/12 00:29:53;;;;;;;7.53;6.93;;;14.40;99.90;;;;;;5091213;28;20138;-67
2022/09/12 00:32:20;;;;;;;10.10;6.78;;;14.40;99.90;;;;;;5075827;28;20040;-68
2022/09/12 00:34:46;;;;;;;8.40;7.65;;;14.30;99.90;;;;;;5072059;28;20541;-66
2022/09/12 00:37:12;;;;;;;8.32;7.68;;;14.30;99.90;;;;;;5072587;27;20301;-66
2022/09/12 00:39:37;;;;;;;8.90;8.10;;;14.30;99.90;;;;;;5071625;28;20089;-66
2022/09/12 00:42:03;;;;;;;9.63;8.70;;;14.30;99.90;;;;;;5070309;28;20059;-66
2022/09/12 00:44:29;;;;;;;9.23;8.45;;;14.20;99.90;;;;;;5071891;28;20063;-69
2022/09/12 00:47:13;;;;;;;9.57;8.48;;;14.10;99.90;;;;;;5070703;28;20063;-68
2022/09/12 00:49:47;;;;;;;9.55;8.65;;;14.20;99.90;;;;;;5091354;28;20048;-67
2022/09/12 00:52:47;;;;;;;10.43;9.43;;;14.10;99.90;;;;;;5070071;28;20136;-67
2022/09/12 00:55:23;;;;;;;9.82;8.95;;;14.10;99.90;;;;;;5070821;28;20044;-66
2022/09/12 00:57:53;;;;;;;10.38;9.40;;;14.10;99.90;;;;;;5071201;28;20036;-66
2022/09/12 01:00:21;;;;;;;10.88;9.88;;;14.10;99.90;;;;;;5052701;28;20075;-70
2022/09/12 01:03:00;;;;;;;12.25;11.02;;;14.10;99.90;;;;;;5070742;28;20679;-69
2022/09/12 01:05:28;;;;;;;11.00;10.07;;;14.00;99.90;;;;;;5070566;28;20048;-67
2022/09/12 01:07:55;;;;;;;11.32;10.40;;;14.00;99.90;;;;;;5069201;28;20482;-67
2022/09/12 01:10:22;;;;;;;11.60;10.55;;;14.00;99.90;;;;;;5070994;28;20059;-66
2022/09/12 01:12:49;;;;;;;11.85;10.75;;;14.00;99.90;;;;;;5070806;28;20036;-68
2022/09/12 01:15:14;;;;;;;11.30;10.27;;;14.00;99.90;;;;;;5070304;28;20052;-67
2022/09/12 01:17:58;;;;;;;11.05;10.05;;;14.00;99.90;;;;;;5070045;28;20079;-66
2022/09/12 01:20:27;;;;;;;;;;;13.90;99.90;;;;;;5070780;28;20056;-69
2022/09/12 01:23:10;;;;;;;;;;;14.00;99.90;;;;;;5071695;28;20062;-68
2022/09/12 01:25:55;;;;;;;;;;;13.90;99.90;;;;;;5069538;28;20788;-69
2022/09/12 01:28:23;;;;;;;;;;;13.80;99.90;;;;;;5070925;28;19972;-68
2022/09/12 01:30:54;;;;;;;;;;;13.80;99.90;;;;;;5071253;28;19974;-67
2022/09/12 01:33:22;;;;;;;;;;;13.80;99.90;;;;;;5070758;28;19924;-66
2022/09/12 01:36:03;;;;;;;;;;;13.70;99.90;;;;;;5070432;28;20708;-65
2022/09/12 01:38:43;;;;;;;;;;;13.70;99.90;;;;;;5070515;28;19924;-66
2022/09/12 01:41:12;;;;;;;;;;;13.60;99.90;;;;;;5070462;28;20022;-66
2022/09/12 01:43:38;;;;;;;;;;;13.60;99.90;;;;;;5069515;28;20320;-67
2022/09/12 01:46:18;;;;;;;;;;;13.50;99.90;;;;;;5068892;28;19924;-66
2022/09/12 01:48:50;;;;;;;;;;;13.50;99.90;;;;;;5070883;28;19931;-67
2022/09/12 01:51:25;;;;;;;;;;;13.40;99.90;;;;;;5070199;28;20410;-67
2022/09/12 01:53:54;;;;;;;;;;;13.30;99.90;;;;;;5070556;28;20432;-71
2022/09/12 01:56:24;;;;;;;;;;;13.30;99.90;;;;;;5070771;28;19923;-68
2022/09/12 01:58:53;;;;;;;;;;;13.30;99.90;;;;;;5070939;28;20415;-66
2022/09/12 02:01:25;;;;;;;;;;;13.30;99.90;;;;;;5069841;28;19931;-66
2022/09/12 02:03:54;;;;;;;;;;;13.20;99.90;;;;;;5070582;28;19920;-65
2022/09/12 02:06:20;;;;;;;;;;;13.10;99.90;;;;;;5069133;28;19981;-67
2022/09/12 02:08:48;;;;;;;;;;;13.10;99.90;;;;;;5068766;28;20011;-67
2022/09/12 02:11:13;;;;;;;;;;;13.10;99.90;;;;;;5070416;28;19924;-71
2022/09/12 02:13:45;;;;;;;;;;;13.10;99.90;;;;;;5071070;28;20311;-68
2022/09/12 02:16:15;;;;;;;;;;;13.10;99.90;;;;;;5079876;28;19924;-67
2022/09/12 02:18:46;;;;;;;;;;;13.10;99.90;;;;;;5089845;28;19924;-67
2022/09/12 02:21:12;;;;;;;;;;;13.10;99.90;;;;;;5089786;28;19977;-69
2022/09/12 02:23:40;;;;;;;;;;;13.00;99.90;;;;;;5090190;28;19923;-67
2022/09/12 02:26:10;;;;;;;;;;;13.10;99.90;;;;;;5090032;28;20357;-65
2022/09/12 02:28:38;;;;;;;;;;;13.00;99.90;;;;;;5089890;28;19923;-67
2022/09/12 02:31:11;;;;;;;;;;;13.10;99.90;;;;;;5090139;28;20064;-67
2022/09/12 02:33:47;;;;;;;;;;;13.00;99.90;;;;;;5090354;28;19920;-67
2022/09/12 02:36:20;;;;;;;;;;;13.10;99.90;;;;;;5090308;28;19926;-67
2022/09/12 02:38:47;;;;;;;;;;;13.10;99.90;;;;;;5090036;28;20038;-66
2022/09/12 02:41:14;;;;;;;;;;;13.10;99.90;;;;;;5089886;28;20287;-65
2022/09/12 02:43:40;;;;;;;;;;;13.10;99.90;;;;;;5090381;28;19923;-65
2022/09/12 02:46:07;;;;;;;;;;;13.10;99.90;;;;;;5092220;28;19930;-67
2022/09/12 02:48:34;;;;;;;;;;;13.10;99.90;;;;;;5092552;28;20271;-67
2022/09/12 02:51:01;;;;;;;;;;;13.10;99.90;;;;;;5091696;28;19971;-67
2022/09/12 02:53:27;;;;;;;;;;;13.00;99.90;;;;;;5092064;28;19924;-67
2022/09/12 02:55:53;;;;;;;;;;;13.10;99.90;;;;;;5072950;28;19963;-69
2022/09/12 02:58:22;;;;;;;;;;;13.10;99.90;;;;;;5072647;28;20679;-67
2022/09/12 03:01:07;;;;;;;;;;;13.00;99.90;;;;;;5074402;28;19928;-69
2022/09/12 03:03:33;;;;;;;;;;;13.00;99.90;;;;;;5073267;28;20369;-69
2022/09/12 03:05:59;;;;;;;;;;;13.00;99.90;;;;;;5072498;28;20199;-67
2022/09/12 03:08:28;;;;;;;;;;;13.00;99.90;;;;;;5073158;28;20312;-67
2022/09/12 03:11:00;;;;;;;;;;;12.90;99.90;;;;;;5073120;28;19992;-67
2022/09/12 03:13:42;;;;;;;;;;;12.90;99.90;;;;;;5072697;28;19978;-67
2022/09/12 03:16:27;;;;;;;;;;;12.90;99.90;;;;;;5071123;28;20496;-67
2022/09/12 03:18:59;;;;;;;;;;;12.90;99.90;;;;;;5071658;28;19919;-67
2022/09/12 03:21:32;;;;;;;;;;;12.80;99.90;;;;;;5072132;28;19930;-66
2022/09/12 03:24:00;;;;;;;;;;;12.90;99.90;;;;;;5074728;28;19985;-68
2022/09/12 03:26:33;;;;;;;;;;;12.80;99.90;;;;;;5074685;28;20226;-66
2022/09/12 03:29:00;;;;;;;;;;;12.90;99.90;;;;;;5075844;28;20020;-68
2022/09/12 03:31:26;;;;;;;;;;;12.80;99.90;;;;;;5076134;28;19931;-67
2022/09/12 03:33:52;;;;;;;;;;;12.60;99.90;;;;;;5075176;28;19931;-65
2022/09/12 03:36:25;;;;;;;;;;;12.80;99.90;;;;;;5075880;28;20311;-66
2022/09/12 03:38:51;;;;;;;;;;;12.80;99.90;;;;;;5074933;28;19924;-68
2022/09/12 03:41:17;;;;;;;;;;;12.90;99.90;;;;;;5076303;28;20303;-65
2022/09/12 03:43:42;;;;;;;;;;;12.80;99.90;;;;;;5075982;28;19924;-66
2022/09/12 03:46:08;;;;;;;;;;;12.80;99.90;;;;;;5076079;28;19924;-68
2022/09/12 03:48:33;;;;;;;;;;;12.80;99.90;;;;;;5075843;28;20275;-68
2022/09/12 03:51:00;;;;;;;;;;;12.80;99.90;;;;;;5075791;28;19930;-66
2022/09/12 03:53:26;;;;;;;;;;;12.80;99.90;;;;;;5075651;28;20196;-67
2022/09/12 03:55:51;;;;;;;;;;;12.90;99.90;;;;;;5074519;28;20411;-69
2022/09/12 03:58:17;;;;;;;;;;;12.70;99.90;;;;;;5074672;28;19934;-66
2022/09/12 04:00:43;;;;;;;;;;;12.70;99.90;;;;;;5075440;28;19920;-66
2022/09/12 04:03:08;;;;;;;;;;;12.70;99.90;;;;;;5075322;28;19932;-68
2022/09/12 04:05:34;;;;;;;;;;;12.70;99.90;;;;;;5079809;28;20201;-69
2022/09/12 04:08:00;;;;;;;;;;;12.60;99.90;;;;;;5094857;28;20265;-67
2022/09/12 04:10:25;;;;;;;;;;;12.60;99.90;;;;;;5093946;28;19999;-66
2022/09/12 04:12:51;;;;;;;;;;;12.70;99.90;;;;;;5095374;28;20346;-68
2022/09/12 04:15:16;;;;;;;;;;;12.70;99.90;;;;;;5093335;28;20268;-68
2022/09/12 04:17:42;;;;;;;;;;;12.60;99.90;;;;;;5093109;28;19920;-68
2022/09/12 04:20:08;;;;;;;;;;;12.50;99.90;;;;;;5094769;28;20100;-67
2022/09/12 04:22:33;;;;;;;;;;;12.60;99.90;;;;;;5075969;28;20512;-67
2022/09/12 04:24:59;;;;;;;;;;;12.70;99.90;;;;;;5091414;28;20428;-66
2022/09/12 04:27:24;;;;;;;;;;;12.70;99.90;;;;;;5092331;28;19931;-67
2022/09/12 04:29:50;;;;;;;;;;;12.70;99.90;;;;;;5090182;28;20488;-65
2022/09/12 04:32:15;;;;;;;;;;;12.60;99.90;;;;;;5091603;28;20260;-66
2022/09/12 04:34:41;;;;;;;;;;;12.60;99.90;;;;;;5089448;28;20236;-67
2022/09/12 04:37:06;;;;;;;;;;;12.70;99.90;;;;;;5090143;28;19924;-67
2022/09/12 04:39:32;;;;;;;;;;;12.80;99.90;;;;;;5091148;28;20449;-67
2022/09/12 04:41:57;;;;;;;;;;;12.70;99.90;;;;;;5091532;28;19923;-66
2022/09/12 04:44:23;;;;;;;;;;;12.60;99.90;;;;;;5091574;28;20039;-68
2022/09/12 04:46:48;;;;;;;;;;;12.80;99.90;;;;;;5091002;28;19931;-66
2022/09/12 04:49:18;;;;;;;;;;;12.60;99.90;;;;;;5089362;28;19920;-66
2022/09/12 04:51:44;;;;;;;;;;;12.70;99.90;;;;;;5090854;28;20353;-65
2022/09/12 04:54:11;;;;;;;;;;;12.70;99.90;;;;;;5079735;28;19927;-67
2022/09/12 04:56:41;;;;;;;;;;;12.80;99.90;;;;;;5070930;28;19927;-66
2022/09/12 04:59:07;;;;;;;;;;;12.70;99.90;;;;;;5071738;28;20429;-67
2022/09/12 05:01:33;;;;;;;;;;;12.80;99.90;;;;;;5070129;28;20311;-67
2022/09/12 05:03:59;;;;;;;;;;;12.90;99.90;;;;;;5070055;28;19931;-68
2022/09/12 05:06:29;;;;;;;;;;;12.80;99.90;;;;;;5071313;28;19962;-69
2022/09/12 05:08:56;;;;;;;;;;;12.90;99.90;;;;;;5071565;28;19924;-66
2022/09/12 05:11:23;;;;;;;;;;;12.90;99.90;;;;;;5070866;28;20210;-67
2022/09/12 05:13:48;;;;;;;;;;;13.00;99.90;;;;;;5071729;28;20041;-70
2022/09/12 05:16:15;;;;;;;;;;;13.10;99.90;;;;;;5073169;28;19953;-68
2022/09/12 05:18:41;;;;;;;;;;;13.10;99.90;;;;;;5073492;28;19935;-66
2022/09/12 05:21:08;;;;;;;;;;;13.10;99.90;;;;;;5086246;28;19923;-68
2022/09/12 05:23:34;;;;;;;;;;;13.30;99.90;;;;;;5092932;28;19945;-68
2022/09/12 05:26:00;;;;;;;;;;;13.40;99.90;;;;;;5091732;27;19923;-69
2022/09/12 05:28:30;;;;;;;;;;;13.30;99.90;;;;;;5072553;28;19923;-70
2022/09/12 05:31:12;;;;;;;;;;;13.50;99.90;;;;;;5082221;28;19931;-67
2022/09/12 05:33:39;;;;;;;;;;;13.50;99.90;;;;;;5070106;28;20160;-67
2022/09/12 05:36:06;;;;;;;;;;;13.70;99.90;;;;;;5071058;28;19967;-67
2022/09/12 05:38:35;;;;;;;;;;;13.70;99.90;;;;;;5053219;28;20023;-67
2022/09/12 05:41:05;;;;;;;;;;;13.80;99.90;;;;;;5070929;28;20375;-67
2022/09/12 05:43:31;;;;;;;;;;;13.70;99.90;;;;;;5070733;28;19934;-66
2022/09/12 05:46:16;;;;;;;;;;;13.80;99.90;;;;;;5069602;28;20250;-66
2022/09/12 05:48:43;;;;;;;;;;;14.00;99.90;;;;;;5071002;28;19924;-68
2022/09/12 05:51:13;;;;;;;;;;;14.10;99.90;;;;;;5070460;28;19924;-67
2022/09/12 05:53:39;;;;;;;;;;;14.10;99.90;;;;;;5070201;28;19924;-67
2022/09/12 05:56:09;;;;;;;;;;;14.10;99.90;;;;;;5070957;28;19966;-69
2022/09/12 05:58:35;;;;;;;;;;;14.20;99.90;;;;;;5070627;28;20590;-67
2022/09/12 06:01:02;;;;;;;;;;;14.30;99.90;;;;;;5069762;28;20442;-66
2022/09/12 06:03:28;;;;;;;;;;;14.30;99.90;;;;;;5070957;28;20120;-66
2022/09/12 06:05:53;;;;;;;;;;;14.30;99.90;;;;;;5071045;28;20443;-67
2022/09/12 06:08:19;;;;;;;;;;;14.30;99.90;;;;;;5070988;28;19931;-66
2022/09/12 06:10:44;;;;;;;;;;;14.30;99.90;;;;;;5071484;28;19923;-66
2022/09/12 06:13:10;;;;;;;;;;;14.40;99.90;;;;;;5071519;28;20034;-67
2022/09/12 06:15:36;;;;;;;;;;;14.30;99.90;;;;;;5070790;28;20363;-67
2022/09/12 06:18:02;;;;;;;;;;;14.40;99.90;;;;;;5070508;28;19978;-69
2022/09/12 06:20:27;;;;;;;;;;;14.30;99.90;;;;;;5070041;28;20031;-71
2022/09/12 06:22:53;;;;;;;;;;;14.50;99.90;;;;;;5069151;28;20401;-66
2022/09/12 06:25:18;;;;;;;;;;;14.50;99.90;;;;;;5070391;28;20434;-66
2022/09/12 06:27:46;;;;;;;;;;;14.50;99.90;;;;;;5072281;28;19920;-69
2022/09/12 06:30:12;;;;;;;;;;;14.70;99.90;;;;;;5072875;28;20026;-65
2022/09/12 06:32:37;;;;;;;;;;;14.70;99.90;;;;;;5070435;28;20014;-66
2022/09/12 06:35:04;;;;;;;;;;;14.80;99.90;;;;;;5070420;28;19931;-68
2022/09/12 06:37:29;;;;;;;;;;;14.90;99.90;;;;;;5069610;28;19924;-66
2022/09/12 06:39:55;;;;;;;;;;;15.00;99.90;;;;;;5069209;28;20461;-67
2022/09/12 06:42:21;;;;;;;;;;;15.00;99.90;;;;;;5069636;28;19924;-67
2022/09/12 06:44:47;;;;;;;;;;;15.10;99.90;;;;;;5070593;28;20262;-66
2022/09/12 06:47:13;;;;;;;;;;;15.30;99.90;;;;;;5070662;28;19920;-68
2022/09/12 06:49:38;;;;;;;;;;;15.30;99.90;;;;;;5070385;28;20241;-67
2022/09/12 06:52:06;;;;;;;;;;;15.30;99.90;;;;;;5070649;28;20023;-70
2022/09/12 06:54:31;;;;;;;;;;;15.40;99.90;;;;;;5070143;28;20030;-69
2022/09/12 06:56:57;;;;;;;;;;;15.40;99.90;;;;;;5071865;28;20415;-66
2022/09/12 06:59:23;;;;;;;;;;;15.40;99.90;;;;;;5075013;28;19924;-70
2022/09/12 07:01:49;;;;;;;;;;;15.50;99.90;;;;;;5074304;28;20006;-66
2022/09/12 07:04:15;;;;;;;;;;;15.50;99.90;;;;;;5082073;28;20022;-66
2022/09/12 07:06:41;;;;;;;;;;;15.60;99.90;;;;;;5092120;28;20378;-67
2022/09/12 07:09:09;;;;;;;;;;;15.60;99.90;;;;;;5092941;28;20049;-66
2022/09/12 07:11:35;;;;;;;;;;;15.60;99.90;;;;;;5091889;28;19999;-69
2022/09/12 07:14:02;;;;;;;;;;;15.60;99.90;;;;;;5093502;28;19923;-69
2022/09/12 07:16:28;;;;;;;;;;;15.70;99.90;;;;;;5092304;28;20392;-67
2022/09/12 07:18:55;;;;;;;;;;;15.80;99.90;;;;;;5092784;28;19976;-70
2022/09/12 07:21:21;;;;;;;;;;;15.70;99.90;;;;;;5092287;28;20267;-68
2022/09/12 07:23:46;;;;;;;;;;;15.90;99.90;;;;;;5092745;28;19927;-67
2022/09/12 07:26:12;;;;;;;;;;;15.80;99.90;;;;;;5092924;28;19931;-69
2022/09/12 07:28:38;;;;;;;;;;;16.00;99.90;;;;;;5092699;28;19923;-66
2022/09/12 07:31:15;;;;;;;;;;;16.00;99.90;;;;;;5090449;28;19927;-67
2022/09/12 07:33:41;;;;;;;;;;;16.10;99.90;;;;;;5091225;28;19927;-67
2022/09/12 07:36:09;;;;;;;;;;;16.20;99.90;;;;;;5091893;28;20410;-67
2022/09/12 07:38:35;;;;;;;;;;;16.30;99.90;;;;;;5092743;28;19968;-68
2022/09/12 07:41:08;;;;;;;;;;;16.40;99.90;;;;;;5092719;28;20018;-67
2022/09/12 07:43:34;;;;;;;;;;;16.40;99.90;;;;;;5093492;28;19923;-67
2022/09/12 07:46:00;;;;;;;;;;;16.50;99.90;;;;;;5077088;28;19923;-68
2022/09/12 07:48:25;;;;;;;;;;;16.60;99.90;;;;;;5093706;28;19969;-68
2022/09/12 07:50:56;;;;;;;;;;;16.80;99.90;;;;;;5093720;28;19964;-65
2022/09/12 07:53:22;;;;;;;;;;;16.90;99.90;;;;;;5094199;28;19924;-68
2022/09/12 07:55:56;;;;;;;;;;;17.00;99.90;;;;;;5095330;28;19929;-69
2022/09/12 07:58:23;;;;;;;;;;;17.10;99.90;;;;;;5094906;28;19924;-66
2022/09/12 08:00:48;;;;;;;;;;;17.20;99.90;;;;;;5080420;28;19924;-67
2022/09/12 08:03:14;;;;;;;;;;;17.40;99.90;;;;;;5075450;28;19931;-68
2022/09/12 08:05:39;;;;;;;;;;;17.30;99.90;;;;;;5075640;28;20092;-67
2022/09/12 08:08:05;;;;;;;;;;;17.30;99.90;;;;;;5074874;28;19924;-66
2022/09/12 08:10:30;;;;;;;;;;;17.40;99.90;;;;;;5080589;28;20002;-68
2022/09/12 08:12:56;;;;;;;;;;;17.30;99.90;;;;;;5093206;28;19924;-67
2022/09/12 08:15:22;;;;;;;;;;;17.30;99.90;;;;;;5091537;28;20398;-68
2022/09/12 08:17:48;;;;;;;;;;;17.30;99.90;;;;;;5092412;28;20006;-66
2022/09/12 08:20:13;;;;;;;;;;;17.20;99.90;;;;;;5093099;28;19932;-67
2022/09/12 08:22:39;;;;;;;;;;;17.20;99.90;;;;;;5091335;28;19976;-66
2022/09/12 08:25:05;;;;;;;;;;;17.20;99.90;;;;;;5089816;28;20409;-66
2022/09/12 08:27:30;;;;;;;;;;;17.20;99.90;;;;;;5072615;28;19924;-66
2022/09/12 08:29:56;;;;;;;;;;;17.40;99.90;;;;;;5087155;28;20587;-66
2022/09/12 08:32:22;;;;;;;;;;;17.70;99.90;;;;;;5090749;28;20021;-67
2022/09/12 08:34:47;;;;;;;;;;;17.80;99.90;;;;;;5091657;28;20306;-68
2022/09/12 08:37:13;;;;;;;;;;;18.10;99.90;;;;;;5089579;27;19974;-66
2022/09/12 08:39:39;;;;;;;;;;;18.20;99.90;;;;;;5072758;28;20378;-68
2022/09/12 08:42:05;;;;;;;;;;;18.40;99.90;;;;;;5072202;28;20375;-67
2022/09/12 08:44:46;;;;;;;;;;;18.30;99.90;;;;;;5078079;28;20515;-68
2022/09/12 08:47:16;;;;;;;;;;;18.40;99.90;;;;;;5091663;28;19924;-68
2022/09/12 08:49:48;;;;;;;;;;;18.40;99.90;;;;;;5092019;28;19923;-68
2022/09/12 08:52:15;;;;;;;;;;;18.50;99.90;;;;;;5091479;28;19935;-67
2022/09/12 08:54:43;;;;;;;;;;;18.70;99.90;;;;;;5091594;28;19923;-66
2022/09/12 08:57:10;;;;;;;;;;;18.80;99.90;;;;;;5091591;28;20580;-68
2022/09/12 08:59:38;;;;;;;;;;;18.80;99.90;;;;;;5094063;28;19959;-67
2022/09/12 09:02:13;;;;;;;;;;;18.80;99.90;;;;;;5093584;28;19923;-67
2022/09/12 09:04:46;;;;;;;;;;;18.90;99.90;;;;;;5074080;28;20511;-67
2022/09/12 09:07:15;;;;;;;;;;;18.80;99.90;;;;;;5089187;28;19923;-68
2022/09/12 09:09:43;;;;;;;;;;;19.00;99.90;;;;;;5093833;27;19923;-68
2022/09/12 09:12:21;;;;;;;;;;;19.00;99.90;;;;;;5093544;28;20114;-67
2022/09/12 09:14:55;;;;;;;;;;;19.10;99.90;;;;;;5093558;28;19923;-69
2022/09/12 09:17:42;;;;;;;;;;;19.20;99.90;;;;;;5095481;28;19923;-69
2022/09/12 09:20:30;;;;;;;;;;;19.30;99.90;;;;;;5093933;28;19931;-71
2022/09/12 09:22:58;;;;;;;;;;;19.30;99.90;;;;;;5077481;28;19920;-68
2022/09/12 09:25:31;;;;;;;;;;;19.30;99.90;;;;;;5087495;28;19923;-69
2022/09/12 09:27:59;;;;;;;;;;;19.30;99.90;;;;;;5091819;28;20298;-66
2022/09/12 09:30:25;;;;;;;;;;;19.50;99.90;;;;;;5091676;28;19930;-66
2022/09/12 09:32:53;;;;;;;;;;;19.50;99.90;;;;;;5089146;28;19920;-69
2022/09/12 09:35:21;;;;;;;;;;;19.70;99.90;;;;;;5072649;28;19942;-65
2022/09/12 09:38:11;;;;;;;;;;;19.60;99.90;;;;;;5071896;28;20426;-66
2022/09/12 09:40:57;;;;;;;;;;;19.70;99.90;;;;;;5065471;28;19967;-68
2022/09/12 09:43:26;;;;;;;;;;;19.70;99.90;;;;;;5072952;28;19977;-66
2022/09/12 09:45:51;;;;;;;;;;;19.80;99.90;;;;;;5074071;28;19930;-71
2022/09/12 09:48:26;;;;;;;;;;;20.00;99.90;;;;;;5073249;28;19928;-69
2022/09/12 09:50:52;;;;;;;;;;;20.00;99.90;;;;;;5073383;28;19971;-68
2022/09/12 09:53:25;;;;;;;;;;;20.10;99.90;;;;;;5073200;28;20007;-65
2022/09/12 09:55:52;;;;;;;;;;;20.20;99.90;;;;;;5074043;28;20412;-67
2022/09/12 09:58:28;;;;;;;;;;;20.30;99.90;;;;;;5092113;28;20401;-66
2022/09/12 10:00:57;;;;;;;;;;;20.50;99.90;;;;;;5090835;28;19924;-68
2022/09/12 10:03:25;;;;;;;;;;;21.10;99.90;;;;;;5092977;28;20653;-69
2022/09/12 10:05:57;;;;;;;;;;;21.30;99.90;;;;;;5092655;28;19942;-68
2022/09/12 10:08:25;;;;;;;;;;;21.70;99.90;;;;;;5092496;28;20450;-67
2022/09/12 10:10:54;;;;;;;;;;;21.90;99.90;;;;;;5089856;28;19928;-70
2022/09/12 10:13:25;;;;;;;;;;;22.20;99.90;;;;;;5077894;28;20276;-68
2022/09/12 10:15:56;;;;;;;;;;;22.50;99.90;;;;;;5089589;28;19995;-68
2022/09/12 10:18:36;;;;;;;;;;;22.30;99.90;;;;;;5093687;28;19923;-71
2022/09/12 10:21:11;;;;;;;;;;;22.60;99.90;;;;;;5092258;28;20336;-67
2022/09/12 10:23:39;;;;;;;;;;;22.80;99.90;;;;;;5093168;28;20342;-68
2022/09/12 10:26:08;;;;;;;;;;;23.40;99.90;;;;;;5084451;28;19924;-69
2022/09/12 10:28:38;;;;;;;;;;;23.70;99.90;;;;;;5073005;28;19920;-68
2022/09/12 10:31:05;;;;;;;;;;;23.80;99.90;;;;;;5072776;28;19930;-67
2022/09/12 10:33:33;;;;;;;;;;;23.70;99.90;;;;;;5073271;28;20024;-69
2022/09/12 10:35:59;;;;;;;;;;;23.70;99.90;;;;;;5073180;28;19978;-68
2022/09/12 10:38:25;;;;;;;;;;;23.70;99.90;;;;;;5073415;28;20009;-68
2022/09/12 10:40:59;;;;;;;;;;;24.00;99.90;;;;;;5073822;28;20401;-68
2022/09/12 10:43:33;;;;;;;;;;;24.10;99.90;;;;;;5072682;28;19923;-70
2022/09/12 10:46:14;;;;;;;;;;;23.90;99.90;;;;;;5071648;28;19923;-68
2022/09/12 10:48:40;;;;;;;;;;;23.80;99.90;;;;;;5072512;28;20385;-70
2022/09/12 10:51:13;;;;;;;;;;;24.10;99.90;;;;;;5073515;28;20407;-69
2022/09/12 10:53:45;;;;;;;;;;;24.60;99.90;;;;;;5071385;28;20383;-68
2022/09/12 10:56:18;;;;;;;;;;;24.80;99.90;;;;;;5072623;28;19924;-70
2022/09/12 10:59:07;;;;;;;;;;;24.90;99.90;;;;;;5070895;28;20387;-67
2022/09/12 11:01:39;;;;;;;;;;;25.00;99.90;;;;;;5070444;28;20359;-69
2022/09/12 11:04:19;;;;;;;;;;;25.10;99.90;;;;;;5070284;28;19963;-67
2022/09/12 11:06:45;;;;;;;;;;;25.10;99.90;;;;;;5072303;28;19932;-67
2022/09/12 11:09:26;;;;;;;;;;;25.30;99.90;;;;;;5069921;28;20501;-69
2022/09/12 11:12:01;;;;;;;;;;;25.60;99.90;;;;;;5070414;28;20373;-70
2022/09/12 11:14:32;;;;;;;;;;;25.80;99.90;;;;;;5088020;28;20498;-67
2022/09/12 11:17:10;;;;;;;;;;;25.90;99.90;;;;;;5089662;28;19932;-68
2022/09/12 11:19:50;;;;;;;;;;;25.80;99.90;;;;;;5088585;28;19924;-68
2022/09/12 11:22:24;;;;;;;;;;;26.00;99.90;;;;;;5088705;28;20565;-70
2022/09/12 11:24:56;;;;;;;;;;;26.20;99.90;;;;;;5087971;28;20204;-67
2022/09/12 11:27:31;;;;;;;;;;;25.80;99.90;;;;;;5069475;28;19923;-71
2022/09/12 11:29:58;;;;;;;;;;;25.70;99.90;;;;;;5069156;28;19931;-70
2022/09/12 11:32:26;;;;;;;;;;;25.20;99.90;;;;;;5069055;28;19923;-68
2022/09/12 11:35:07;;;;;;;;;;;25.20;99.90;;;;;;5069631;28;19930;-71
2022/09/12 11:37:53;;;;;;;;;;;25.70;99.90;;;;;;5069073;28;19978;-71
2022/09/12 11:40:26;;;;;;;;;;;25.70;99.90;;;;;;5068976;28;20355;-70
2022/09/12 11:42:54;;;;;;;;;;;26.20;99.90;;;;;;5069757;28;19924;-69
2022/09/12 11:45:23;;;;;;;;;;;26.30;99.90;;;;;;5072689;28;19959;-67
2022/09/12 11:47:51;;;;;;;;;;;26.40;99.00;;;;;;5072738;28;19924;-65
2022/09/12 11:50:24;;;;;;;;;;;25.90;99.50;;;;;;5072826;28;20358;-67
2022/09/12 11:52:51;;;;;;;;;;;26.20;99.90;;;;;;5073108;28;19935;-68
2022/09/12 11:55:19;;;;;;;;;;;26.40;99.20;;;;;;5072646;28;19942;-68
2022/09/12 11:57:51;;;;;;;;;;;26.70;98.50;;;;;;5072896;28;20380;-68
2022/09/12 12:00:18;;;;;;;;;;;26.80;99.90;;;;;;5071584;28;19923;-67
2022/09/12 12:02:54;;;;;;;;;;;26.90;97.70;;;;;;5080271;28;19928;-68
2022/09/12 12:05:25;;;;;;;;;;;26.90;95.70;;;;;;5079098;28;19978;-68
2022/09/12 12:07:52;;;;;;;;;;;27.10;91.90;;;;;;5079786;28;19927;-67
2022/09/12 12:10:38;;;;;;;;;;;26.80;93.90;;;;;;5087643;28;19936;-69
2022/09/12 12:13:18;;;;;;;;;;;26.60;91.40;;;;;;5087185;28;20466;-69
2022/09/12 12:15:55;;;;;;;;;;;27.00;88.80;;;;;;5070603;28;20375;-68
2022/09/12 12:18:23;;;;;;;;;;;27.00;89.10;;;;;;5072230;28;20007;-69
2022/09/12 12:20:49;;;;;;;;;;;26.80;90.70;;;;;;5072427;28;19923;-69
2022/09/12 12:23:25;;;;;;;;;;;26.80;90.60;;;;;;5072328;28;20503;-69
2022/09/12 12:25:58;;;;;;;;;;;26.90;91.40;;;;;;5073103;28;19924;-71
2022/09/12 12:28:49;;;;;;;;;;;27.20;86.60;;;;;;5074184;28;20018;-68
2022/09/12 12:31:15;;;;;;;;;;;27.20;83.30;;;;;;5073236;28;19935;-68
2022/09/12 12:33:44;;;;;;;;;;;26.20;87.20;;;;;;5092153;28;19919;-70
2022/09/12 12:36:27;;;;;;;;;;;26.10;91.40;;;;;;5072528;28;20066;-70
2022/09/12 12:38:53;;;;;;;;;;;26.00;92.90;;;;;;5073029;28;20056;-70
2022/09/12 12:41:19;;;;;;;;;;;25.70;93.40;;;;;;5073123;28;19931;-70
2022/09/12 12:43:45;;;;;;;;;;;25.70;94.00;;;;;;5085856;28;20396;-69
2022/09/12 12:46:12;;;;;;;;;;;26.00;93.60;;;;;;5093484;28;20003;-70
2022/09/12 12:48:51;;;;;;;;;;;26.70;91.20;;;;;;5073653;28;19931;-68
2022/09/12 12:51:37;;;;;;;;;;;27.30;90.60;;;;;;5088770;28;20334;-68
2022/09/12 12:54:04;;;;;;;;;;;27.60;85.20;;;;;;5072588;28;19924;-67
2022/09/12 12:56:41;;;;;;;;;;;27.80;83.70;;;;;;5071729;28;19987;-68
2022/09/12 12:59:21;;;;;;;;;;;27.70;78.60;;;;;;5072532;28;20429;-68
2022/09/12 13:01:51;;;;;;;;;;;27.90;82.00;;;;;;5072542;28;19931;-69
2022/09/12 13:04:18;;;;;;;;;;;27.90;83.10;;;;;;5074115;28;20203;-69
2022/09/12 13:06:45;;;;;;;;;;;28.30;79.00;;;;;;5074305;28;19924;-69
2022/09/12 13:09:30;;;;;;;;;;;28.20;78.10;;;;;;5072392;28;20205;-70
2022/09/12 13:11:58;;;;;;;;;;;28.40;74.60;;;;;;5074288;28;19996;-71
2022/09/12 13:14:45;;;;;;;;;;;28.10;77.70;;;;;;5072479;28;19924;-70
2022/09/12 13:17:21;;;;;;;;;;;27.70;78.40;;;;;;5062612;28;19927;-71
2022/09/12 13:19:47;;;;;;;;;;;27.40;83.00;;;;;;5083673;28;20024;-69
2022/09/12 13:22:13;;;;;;;;;;;27.60;81.80;;;;;;5092040;28;19950;-67
2022/09/12 13:24:51;;;;;;;;;;;27.40;79.50;;;;;;5075044;28;20341;-70
2022/09/12 13:27:21;;;;;;;;;;;27.30;74.70;;;;;;5093258;28;20006;-68
2022/09/12 13:29:46;;;;;;;;;;;26.80;78.70;;;;;;5092177;28;20360;-72
2022/09/12 13:32:12;;;;;;;;;;;26.80;78.40;;;;;;5091916;28;19923;-67
2022/09/12 13:34:58;;;;;;;;;;;26.70;78.20;;;;;;5091111;28;20137;-68
2022/09/12 13:37:27;;;;;;;;;;;26.40;79.80;;;;;;5086710;28;19924;-68
2022/09/12 13:39:54;;;;;;;;;;;26.80;81.10;;;;;;5074303;28;19920;-68
2022/09/12 13:42:32;;;;;;;;;;;27.20;81.10;;;;;;5072577;28;20339;-69
2022/09/12 13:45:01;;;;;;;;;;;27.50;76.20;;;;;;5073340;28;20449;-68
2022/09/12 13:47:38;;;;;;;;;;;27.60;74.50;;;;;;5071975;28;19938;-69
2022/09/12 13:50:06;;;;;;;;;;;27.60;69.70;;;;;;5092237;28;19924;-70
2022/09/12 13:52:33;;;;;;;;;;;27.50;68.70;;;;;;5077863;28;20354;-70
2022/09/12 13:55:00;;;;;;;;;;;26.90;71.40;;;;;;5073159;28;19924;-71
2022/09/12 13:57:27;;;;;;;;;;;26.50;76.50;;;;;;5080570;28;20006;-68
2022/09/12 13:59:54;;;;;;;;;;;26.60;77.60;;;;;;5092589;28;19963;-71
2022/09/12 14:02:21;;;;;;;;;;;26.70;75.90;;;;;;5091355;28;20135;-68
2022/09/12 14:07:31;;;;;;;;;;;26.20;74.10;;;;;;5090375;28;19931;-69
2022/09/12 14:10:00;;;;;;;;;;;26.40;77.40;;;;;;5092458;28;20249;-68
2022/09/12 14:12:29;;;;;;;;;;;26.40;72.40;;;;;;5086536;28;19931;-70
2022/09/12 14:14:55;;;;;;;;;;;26.60;72.00;;;;;;5072071;28;19924;-69
2022/09/12 14:17:30;;;;;;;;;;;26.30;73.50;;;;;;5073163;28;19924;-67
2022/09/12 14:19:58;;;;;;;;;;;26.50;74.80;;;;;;5073117;28;19966;-69
2022/09/12 14:22:24;;;;;;;;;;;26.50;75.90;;;;;;5071524;28;20209;-70